world map with MXP marked

MXP - Airport

This information may not be accurate or current and is not valid for navigation or flight planning. No warranty of fitness for any purpose is made or implied.

flag of Lombardyflag of Italy

Donate via PayPal

Additional information is available on the NEW Great Circle Mapper

Location
City:  Milan, Lombardy, Italy
Near (Alt.):Milano
Name:Malpensa
ICAO / IATA:LIMC / MXP

Details
Type:Airport (Aerodrome, Airfield)
Use:Public/Civil
Latitude:45°37'50"N (45.630606)
Longitude:8°43'41"E (8.728111)
Datum:WGS 1984
Elevation:767 ft (234 m)
Runways:2
Longest:12861 × 197 ft (3920 × 60 m)

Time
Timezone:UTC+1 (DST+4)
Local Time:

Weather
METAR:LIMC  041350Z 21004KT 140V290 CAVOK 11/M02 Q1025 NOSIG
TAF:LIMC  041100Z 0412/0518 01007KT CAVOK

Related Locations
Nearby:
Farthest:CHT: 12154 mi / 19560 km
Waitangi [Tuuta], CIT, NZ

Find:

   beyond  
but within

Other Information
Maps:
Links:
Sources:

  


 


Great Circle Mapper   Great Circle Mapper
Great Circle Mapper FAQ   Great Circle Mapper FAQ
  Karl's Home Page
KLSē   KLSē Home
   GC on Facebook
Airlines of the World   Airlines of the World
Donate via PayPal


Copyright © 2004-2019, Karl L. Swartz. All rights reserved.
All trademarks mentioned herein belong to their respective owners.

Please see credits for attribution and copyright information.

Karl Swartz <karl@kls2.com>
  Powered by FreeBSD
Valid HTML 4.01!
Labeled with ICRA
hCard Microformat
Geo Microformat